Костюмеры

Карта отелей и гостиниц, располагающихся рядом с аэропортом Костюмеры :

Костюмеры Чувашия 55° 25' 59.52" N, 47° 1' 46.3188" E
Код аэродрома ИКАО
ZDQ6
Код аэродрома RU
ЗДЯ6
Координаты
N55.43320° E047.02953°
Превышение над уровнем моря
174
Основная полоса
03/21
Курс магнитный
026/206
Длина основной ВПП
400
Ширина основной ВПП
19
Покрытие основной ВПП
Твёрдое (асфальт)
Освещение ВПП
Нет
Тип: 
Аэродром
Класс аэродрома: 
Принадлежность: 
ГА
Статус: 
Недействующий
Сайт: 
E-mail аэродрома: 
Страна: 
Россия
Регион: 
Чувашия
Город: 
Дополнительная информация: 
Площадка АХР.

Найти трансфер

С помощью этой формы Вы можете найти трансфер из аэропорта Костюмеры в город, аэропорт или вокзал:

Карта места

Javascript is required to view this map.

Погода в аэропортах:

Авиационная погода в Ставрополе

Регион: 
Погода METAR: 
URMT 171630Z 00000MPS 9999 -RA SCT040 09/06 Q1021 R25/290250 NOSIG RMK QFE727
Время наблюдения
2021-04-17T16:30:00Z
Температура C
9.0
Точка росы
6.0
Направление ветра
0
Скорость ветра (узлы)
0
Метео видимость
6.21
Явления погоды
-RA
Условия полета
VFR
Аэропорт подробнее: 

Авиационная погода во Владикавказе

Регион: 
Погода METAR: 
URMO 171630Z 19002MPS 160V240 9999 -RA OVC018 11/09 Q1022 R27/290150 NOSIG RMK QFE721/0962
Время наблюдения
2021-04-17T16:30:00Z
Температура C
11.0
Точка росы
9.0
Направление ветра
190
Скорость ветра (узлы)
4
Метео видимость
6.21
Явления погоды
-RA
Условия полета
MVFR
Аэропорт подробнее: 

Авиационная погода в Гомеле

Регион: 
Погода METAR: 
UMGG 171630Z VRB01MPS 8000 -SHRA OVC041CB 09/07 Q1018 R10/D NOSIG
Время наблюдения
2021-04-17T16:30:00Z
Температура C
9.0
Точка росы
7.0
Направление ветра
0
Скорость ветра (узлы)
2
Метео видимость
4.97
Явления погоды
-SHRA
Условия полета
MVFR
Аэропорт подробнее: 

Авиационная погода в аэропорту Новый

Регион: 
Погода METAR: 
UHHH 171630Z 19001MPS 0050 R23R/P2000U PRFG VV002 00/00 Q1012 R23R/090060 NOSIG RMK QBB060 QFE753/1004
Время наблюдения
2021-04-17T16:30:00Z
Температура C
0.0
Точка росы
0.0
Направление ветра
190
Скорость ветра (узлы)
2
Метео видимость
0.03
Явления погоды
PRFG
Условия полета
LIFR
Аэропорт подробнее: